Terminal Aerodrome Forecast
Issued by NWS

Home | Current Version | Previous Version | Text Only | Print | Product List | Glossary On
Versions: 1 2 3 4 5 6 7 8 9 10 11 12 13 14 15 16 17 18 19 20 21 22 23 24 25 26 27 28 29 30 31 32 33 34 35 36 37 38
000
FTUS43 KMKX 241025 AAB
TAFUES
TAF AMD
KUES 241025Z 2410/2506 09008KT 5SM -RA SCT035 OVC050
     FM241200 11008KT P6SM VCSH OVC050
     FM241500 13015G23KT 5SM BR SCT020 BKN060
     FM241800 13014G25KT 4SM -RA SCT025 OVC050CB
     FM250100 17008KT 6SM -SHRA BR OVC035
     FM250400 20005KT 6SM BR OVC025=

USA.gov is the U.S. government's official web portal to all federal, state and local government web resources and services.